Burneyville, OK (73430)

8:33 PM CST on December 17, 2014 (GMT -0600)
Bulcher | Change Station
CLOSE
Current Station
Personal Weather Station
Location: Muenster, TX
Elevation: 850 ft
Nearby Weather Stations

Elev 850 ft 33.80 °N, 97.42 °W | Updated 6 seconds ago

Overcast
Overcast
38.9 °F
Feels Like 37 °F
N
3.1
Wind Variable Wind from ESE
Gusts 3.7 mph

Today
High -- | Low -- °F
--% Chance of Precip.
Yesterday
High -- | Low -- °F
Precip. -- in
7:28 AM 5:22 PM
Waning Crescent, 18% visible
Pressure 30.16 in
Visibility 10.0 miles
Clouds Overcast 400 ft
Windchill 37 °F
Dew Point 39 °F
Humidity 100%
Rainfall 0.36 in
Snow Depth Not available.
UV 0 out of 12
Pollen 8.20 out of 12
Air Quality Not available.
Flu Activity Not available.
METAR K1F0 180215Z AUTO 14006KT 10SM OVC004 03/02 A3016 RMK AO2

More Conditions Fewer Conditions

Pressure 30.16 in
Visibility 10.0 miles
Clouds Overcast 400 ft
Windchill 37 °F
Dew Point 39 °F
Humidity 100%
Rainfall 0.36 in
Snow Depth Not available.
UV 0 out of 12
Pollen 8.20 out of 12
Air Quality Not available.
Flu Activity Not available.
METAR K1F0 180215Z AUTO 14006KT 10SM OVC004 03/02 A3016 RMK AO2

More Conditions Fewer Conditions

10-Day Weather Forecast

Almanac

Astronomy

Dec. 17, 2014 Rise Set
Actual Time
Civil Twilight
Nautical Twilight
Astronomical Twilight
Moon
Length of Visible Light
Length of Day
Tomorrow will be .
, % of the Moon is Illuminated

Today's Extremes

State Highs State Lows

Community

WunderPhotos

Upload Photos

1,778,862 photos uploaded!

WunderBlogs® & News

Nearby

Air Quality

  Air Quality AQ Index Pollutant
Not available.

Snow Depth

Station Depth Elevation

Earthquake Activity

City Distance Mag. Time & Date
Minimum magnitude displayed is 2.5.

Coastal Water Temperatures

Place Temperature

Nearby Weather Stations